sensor_id;sensor_type;location;lat;lon;timestamp;P1;durP1;ratioP1;P2;durP2;ratioP2
58242;SDS011;50118;53.232;8.252;2023-10-09T00:00:05;8.18;;;3.60;;
58242;SDS011;50118;53.232;8.252;2023-10-09T00:02:50;7.70;;;3.55;;
58242;SDS011;50118;53.232;8.252;2023-10-09T00:05:15;6.43;;;3.80;;
58242;SDS011;50118;53.232;8.252;2023-10-09T00:07:52;10.10;;;4.10;;
58242;SDS011;50118;53.232;8.252;2023-10-09T00:10:22;7.13;;;4.38;;
58242;SDS011;50118;53.232;8.252;2023-10-09T00:12:47;9.35;;;4.20;;
58242;SDS011;50118;53.232;8.252;2023-10-09T00:15:14;10.70;;;4.50;;
58242;SDS011;50118;53.232;8.252;2023-10-09T00:17:43;10.35;;;4.90;;
58242;SDS011;50118;53.232;8.252;2023-10-09T00:20:12;8.82;;;4.40;;
58242;SDS011;50118;53.232;8.252;2023-10-09T00:22:45;6.75;;;3.75;;
58242;SDS011;50118;53.232;8.252;2023-10-09T00:25:11;10.15;;;4.57;;
58242;SDS011;50118;53.232;8.252;2023-10-09T00:27:37;9.80;;;4.47;;
58242;SDS011;50118;53.232;8.252;2023-10-09T00:30:11;8.13;;;4.65;;
58242;SDS011;50118;53.232;8.252;2023-10-09T00:32:40;9.38;;;4.82;;
58242;SDS011;50118;53.232;8.252;2023-10-09T00:35:08;8.68;;;4.53;;
58242;SDS011;50118;53.232;8.252;2023-10-09T00:37:52;9.93;;;4.90;;
58242;SDS011;50118;53.232;8.252;2023-10-09T00:40:29;8.88;;;4.57;;
58242;SDS011;50118;53.232;8.252;2023-10-09T00:42:56;8.32;;;4.25;;
58242;SDS011;50118;53.232;8.252;2023-10-09T00:45:27;8.30;;;4.63;;
58242;SDS011;50118;53.232;8.252;2023-10-09T00:47:57;9.80;;;4.78;;
58242;SDS011;50118;53.232;8.252;2023-10-09T00:50:26;9.20;;;4.72;;
58242;SDS011;50118;53.232;8.252;2023-10-09T00:52:52;7.28;;;4.93;;
58242;SDS011;50118;53.232;8.252;2023-10-09T00:55:36;7.40;;;4.22;;
58242;SDS011;50118;53.232;8.252;2023-10-09T00:58:08;10.05;;;4.90;;
58242;SDS011;50118;53.232;8.252;2023-10-09T01:00:40;7.72;;;4.60;;
58242;SDS011;50118;53.232;8.252;2023-10-09T01:03:09;10.90;;;5.15;;
58242;SDS011;50118;53.232;8.252;2023-10-09T01:05:44;9.02;;;4.55;;
58242;SDS011;50118;53.232;8.252;2023-10-09T01:08:29;13.27;;;5.03;;
58242;SDS011;50118;53.232;8.252;2023-10-09T01:10:55;9.43;;;4.72;;
58242;SDS011;50118;53.232;8.252;2023-10-09T01:13:25;9.45;;;5.00;;
58242;SDS011;50118;53.232;8.252;2023-10-09T01:16:03;10.05;;;5.00;;
58242;SDS011;50118;53.232;8.252;2023-10-09T01:18:30;7.70;;;5.00;;
58242;SDS011;50118;53.232;8.252;2023-10-09T01:21:01;10.30;;;4.93;;
58242;SDS011;50118;53.232;8.252;2023-10-09T01:23:28;7.90;;;5.13;;
58242;SDS011;50118;53.232;8.252;2023-10-09T01:25:54;7.30;;;4.68;;
58242;SDS011;50118;53.232;8.252;2023-10-09T01:28:20;10.25;;;5.40;;
58242;SDS011;50118;53.232;8.252;2023-10-09T01:30:46;10.52;;;5.40;;
58242;SDS011;50118;53.232;8.252;2023-10-09T01:33:13;10.15;;;5.10;;
58242;SDS011;50118;53.232;8.252;2023-10-09T01:36:00;9.68;;;5.32;;
58242;SDS011;50118;53.232;8.252;2023-10-09T01:38:26;11.60;;;5.38;;
58242;SDS011;50118;53.232;8.252;2023-10-09T01:41:12;11.02;;;5.55;;
58242;SDS011;50118;53.232;8.252;2023-10-09T01:43:44;9.00;;;4.90;;
58242;SDS011;50118;53.232;8.252;2023-10-09T01:46:13;8.05;;;5.20;;
58242;SDS011;50118;53.232;8.252;2023-10-09T01:48:42;10.65;;;5.20;;
58242;SDS011;50118;53.232;8.252;2023-10-09T01:51:14;9.00;;;5.50;;
58242;SDS011;50118;53.232;8.252;2023-10-09T01:53:55;12.43;;;5.80;;
58242;SDS011;50118;53.232;8.252;2023-10-09T01:56:22;8.68;;;5.35;;
58242;SDS011;50118;53.232;8.252;2023-10-09T01:58:47;10.90;;;5.78;;
58242;SDS011;50118;53.232;8.252;2023-10-09T02:01:15;11.13;;;5.80;;
58242;SDS011;50118;53.232;8.252;2023-10-09T02:03:41;12.10;;;5.88;;
58242;SDS011;50118;53.232;8.252;2023-10-09T02:06:08;8.10;;;5.28;;
58242;SDS011;50118;53.232;8.252;2023-10-09T02:08:52;11.45;;;5.85;;
58242;SDS011;50118;53.232;8.252;2023-10-09T02:11:18;10.25;;;5.78;;
58242;SDS011;50118;53.232;8.252;2023-10-09T02:14:01;10.85;;;5.70;;
58242;SDS011;50118;53.232;8.252;2023-10-09T02:16:30;10.23;;;5.95;;
58242;SDS011;50118;53.232;8.252;2023-10-09T02:19:06;10.38;;;6.00;;
58242;SDS011;50118;53.232;8.252;2023-10-09T02:21:33;12.18;;;5.72;;
58242;SDS011;50118;53.232;8.252;2023-10-09T02:24:00;10.07;;;5.93;;
58242;SDS011;50118;53.232;8.252;2023-10-09T02:26:31;11.00;;;6.70;;
58242;SDS011;50118;53.232;8.252;2023-10-09T02:29:25;9.43;;;6.05;;
58242;SDS011;50118;53.232;8.252;2023-10-09T02:31:51;11.27;;;6.57;;
58242;SDS011;50118;53.232;8.252;2023-10-09T02:34:17;9.70;;;5.90;;
58242;SDS011;50118;53.232;8.252;2023-10-09T02:36:52;9.40;;;5.78;;
58242;SDS011;50118;53.232;8.252;2023-10-09T02:39:30;10.68;;;6.25;;
58242;SDS011;50118;53.232;8.252;2023-10-09T02:42:01;10.27;;;5.80;;
58242;SDS011;50118;53.232;8.252;2023-10-09T02:44:33;13.15;;;6.43;;
58242;SDS011;50118;53.232;8.252;2023-10-09T02:47:04;9.75;;;5.60;;
58242;SDS011;50118;53.232;8.252;2023-10-09T02:49:33;10.93;;;5.85;;
58242;SDS011;50118;53.232;8.252;2023-10-09T02:51:59;9.20;;;5.63;;
58242;SDS011;50118;53.232;8.252;2023-10-09T02:54:30;9.18;;;5.82;;
58242;SDS011;50118;53.232;8.252;2023-10-09T02:57:00;10.70;;;5.80;;
58242;SDS011;50118;53.232;8.252;2023-10-09T02:59:41;9.05;;;6.10;;
58242;SDS011;50118;53.232;8.252;2023-10-09T03:02:07;10.48;;;6.18;;
58242;SDS011;50118;53.232;8.252;2023-10-09T03:04:33;9.70;;;5.78;;
58242;SDS011;50118;53.232;8.252;2023-10-09T03:07:02;9.13;;;5.88;;
58242;SDS011;50118;53.232;8.252;2023-10-09T03:09:29;8.93;;;6.10;;
58242;SDS011;50118;53.232;8.252;2023-10-09T03:11:56;7.78;;;5.10;;
58242;SDS011;50118;53.232;8.252;2023-10-09T03:14:33;10.77;;;6.85;;
58242;SDS011;50118;53.232;8.252;2023-10-09T03:17:03;8.68;;;5.72;;
58242;SDS011;50118;53.232;8.252;2023-10-09T03:19:30;9.98;;;6.43;;
58242;SDS011;50118;53.232;8.252;2023-10-09T03:22:02;11.45;;;6.07;;
58242;SDS011;50118;53.232;8.252;2023-10-09T03:24:28;10.38;;;6.68;;
58242;SDS011;50118;53.232;8.252;2023-10-09T03:26:55;12.88;;;6.00;;
58242;SDS011;50118;53.232;8.252;2023-10-09T03:29:21;12.77;;;7.30;;
58242;SDS011;50118;53.232;8.252;2023-10-09T03:31:48;12.38;;;6.60;;
58242;SDS011;50118;53.232;8.252;2023-10-09T03:34:15;14.68;;;7.70;;
58242;SDS011;50118;53.232;8.252;2023-10-09T03:36:42;14.23;;;7.28;;
58242;SDS011;50118;53.232;8.252;2023-10-09T03:39:08;10.98;;;6.43;;
58242;SDS011;50118;53.232;8.252;2023-10-09T03:41:52;12.73;;;7.38;;
58242;SDS011;50118;53.232;8.252;2023-10-09T03:44:23;14.43;;;7.20;;
58242;SDS011;50118;53.232;8.252;2023-10-09T03:46:53;14.25;;;7.47;;
58242;SDS011;50118;53.232;8.252;2023-10-09T03:49:18;15.00;;;8.85;;
58242;SDS011;50118;53.232;8.252;2023-10-09T03:51:50;15.80;;;8.52;;
58242;SDS011;50118;53.232;8.252;2023-10-09T03:56:55;17.15;;;8.60;;
58242;SDS011;50118;53.232;8.252;2023-10-09T03:59:24;17.25;;;8.52;;
58242;SDS011;50118;53.232;8.252;2023-10-09T04:02:07;17.17;;;8.60;;
58242;SDS011;50118;53.232;8.252;2023-10-09T04:04:33;16.45;;;9.63;;
58242;SDS011;50118;53.232;8.252;2023-10-09T04:06:58;18.40;;;9.70;;
58242;SDS011;50118;53.232;8.252;2023-10-09T04:09:35;15.32;;;9.20;;
58242;SDS011;50118;53.232;8.252;2023-10-09T04:12:04;18.88;;;10.32;;
58242;SDS011;50118;53.232;8.252;2023-10-09T04:14:45;19.45;;;10.73;;
58242;SDS011;50118;53.232;8.252;2023-10-09T04:17:31;21.17;;;10.88;;
58242;SDS011;50118;53.232;8.252;2023-10-09T04:20:01;20.80;;;11.45;;
58242;SDS011;50118;53.232;8.252;2023-10-09T04:25:30;20.88;;;11.65;;
58242;SDS011;50118;53.232;8.252;2023-10-09T04:28:10;23.42;;;12.15;;
58242;SDS011;50118;53.232;8.252;2023-10-09T04:30:47;24.42;;;12.68;;
58242;SDS011;50118;53.232;8.252;2023-10-09T04:33:18;21.60;;;12.73;;
58242;SDS011;50118;53.232;8.252;2023-10-09T04:36:07;22.40;;;12.75;;
58242;SDS011;50118;53.232;8.252;2023-10-09T04:38:45;25.60;;;12.95;;
58242;SDS011;50118;53.232;8.252;2023-10-09T04:41:29;24.35;;;14.25;;
58242;SDS011;50118;53.232;8.252;2023-10-09T04:44:17;29.80;;;14.20;;
58242;SDS011;50118;53.232;8.252;2023-10-09T04:46:50;30.05;;;14.77;;
58242;SDS011;50118;53.232;8.252;2023-10-09T04:49:34;23.10;;;13.23;;
58242;SDS011;50118;53.232;8.252;2023-10-09T04:52:13;28.95;;;14.48;;
58242;SDS011;50118;53.232;8.252;2023-10-09T04:54:54;26.25;;;14.65;;
58242;SDS011;50118;53.232;8.252;2023-10-09T04:57:33;31.70;;;15.35;;
58242;SDS011;50118;53.232;8.252;2023-10-09T05:00:08;32.95;;;16.20;;
58242;SDS011;50118;53.232;8.252;2023-10-09T05:02:56;37.13;;;17.52;;
58242;SDS011;50118;53.232;8.252;2023-10-09T05:05:27;30.33;;;15.88;;
58242;SDS011;50118;53.232;8.252;2023-10-09T05:08:09;44.53;;;18.13;;
58242;SDS011;50118;53.232;8.252;2023-10-09T05:10:55;31.58;;;15.82;;
58242;SDS011;50118;53.232;8.252;2023-10-09T05:16:17;38.80;;;18.20;;
58242;SDS011;50118;53.232;8.252;2023-10-09T05:18:50;34.28;;;17.58;;
58242;SDS011;50118;53.232;8.252;2023-10-09T05:21:24;41.15;;;19.52;;
58242;SDS011;50118;53.232;8.252;2023-10-09T05:23:58;40.83;;;18.95;;
58242;SDS011;50118;53.232;8.252;2023-10-09T05:26:47;44.17;;;19.85;;
58242;SDS011;50118;53.232;8.252;2023-10-09T05:29:19;42.28;;;18.25;;
58242;SDS011;50118;53.232;8.252;2023-10-09T05:31:57;46.10;;;20.53;;
58242;SDS011;50118;53.232;8.252;2023-10-09T05:34:39;49.95;;;20.88;;
58242;SDS011;50118;53.232;8.252;2023-10-09T05:37:25;49.25;;;22.58;;
58242;SDS011;50118;53.232;8.252;2023-10-09T05:40:08;41.75;;;21.17;;
58242;SDS011;50118;53.232;8.252;2023-10-09T05:42:44;50.47;;;21.63;;
58242;SDS011;50118;53.232;8.252;2023-10-09T05:45:14;47.53;;;21.70;;
58242;SDS011;50118;53.232;8.252;2023-10-09T05:50:34;55.13;;;24.08;;
58242;SDS011;50118;53.232;8.252;2023-10-09T05:53:01;54.08;;;23.13;;
58242;SDS011;50118;53.232;8.252;2023-10-09T05:55:27;56.25;;;23.55;;
58242;SDS011;50118;53.232;8.252;2023-10-09T05:58:12;51.95;;;23.30;;
58242;SDS011;50118;53.232;8.252;2023-10-09T06:00:57;56.03;;;24.40;;
58242;SDS011;50118;53.232;8.252;2023-10-09T06:03:32;59.47;;;25.63;;
58242;SDS011;50118;53.232;8.252;2023-10-09T06:06:16;63.25;;;27.02;;
58242;SDS011;50118;53.232;8.252;2023-10-09T06:09:07;57.50;;;24.77;;
58242;SDS011;50118;53.232;8.252;2023-10-09T06:11:43;63.55;;;27.75;;
58242;SDS011;50118;53.232;8.252;2023-10-09T06:14:19;64.45;;;26.98;;
58242;SDS011;50118;53.232;8.252;2023-10-09T06:16:55;62.90;;;27.85;;
58242;SDS011;50118;53.232;8.252;2023-10-09T06:19:40;64.35;;;28.05;;
58242;SDS011;50118;53.232;8.252;2023-10-09T06:22:09;68.63;;;29.13;;
58242;SDS011;50118;53.232;8.252;2023-10-09T06:24:53;66.53;;;29.02;;
58242;SDS011;50118;53.232;8.252;2023-10-09T06:27:19;75.40;;;30.13;;
58242;SDS011;50118;53.232;8.252;2023-10-09T06:29:58;65.00;;;29.60;;
58242;SDS011;50118;53.232;8.252;2023-10-09T06:32:42;68.85;;;30.30;;
58242;SDS011;50118;53.232;8.252;2023-10-09T06:35:26;70.07;;;29.98;;
58242;SDS011;50118;53.232;8.252;2023-10-09T06:37:58;68.45;;;30.50;;
58242;SDS011;50118;53.232;8.252;2023-10-09T06:43:05;72.72;;;30.88;;
58242;SDS011;50118;53.232;8.252;2023-10-09T06:46:03;73.88;;;31.00;;
58242;SDS011;50118;53.232;8.252;2023-10-09T06:49:07;68.03;;;29.33;;
58242;SDS011;50118;53.232;8.252;2023-10-09T06:51:53;66.75;;;30.25;;
58242;SDS011;50118;53.232;8.252;2023-10-09T06:54:20;71.50;;;31.05;;
58242;SDS011;50118;53.232;8.252;2023-10-09T06:56:50;70.72;;;31.08;;
58242;SDS011;50118;53.232;8.252;2023-10-09T06:59:38;65.18;;;29.05;;
58242;SDS011;50118;53.232;8.252;2023-10-09T07:02:29;63.83;;;28.33;;
58242;SDS011;50118;53.232;8.252;2023-10-09T07:04:56;57.47;;;27.35;;
58242;SDS011;50118;53.232;8.252;2023-10-09T07:07:35;67.38;;;30.60;;
58242;SDS011;50118;53.232;8.252;2023-10-09T07:10:00;68.38;;;29.15;;
58242;SDS011;50118;53.232;8.252;2023-10-09T07:12:45;72.38;;;30.38;;
58242;SDS011;50118;53.232;8.252;2023-10-09T07:15:18;66.10;;;29.55;;
58242;SDS011;50118;53.232;8.252;2023-10-09T07:18:02;67.38;;;29.75;;
58242;SDS011;50118;53.232;8.252;2023-10-09T07:20:44;68.97;;;28.98;;
58242;SDS011;50118;53.232;8.252;2023-10-09T07:23:24;62.03;;;30.05;;
58242;SDS011;50118;53.232;8.252;2023-10-09T07:26:00;63.28;;;29.00;;
58242;SDS011;50118;53.232;8.252;2023-10-09T07:28:43;64.10;;;28.95;;
58242;SDS011;50118;53.232;8.252;2023-10-09T07:31:16;71.30;;;29.75;;
58242;SDS011;50118;53.232;8.252;2023-10-09T07:33:49;67.68;;;29.20;;
58242;SDS011;50118;53.232;8.252;2023-10-09T07:36:21;64.15;;;29.60;;
58242;SDS011;50118;53.232;8.252;2023-10-09T07:39:07;58.25;;;27.60;;
58242;SDS011;50118;53.232;8.252;2023-10-09T07:41:40;61.70;;;28.02;;
58242;SDS011;50118;53.232;8.252;2023-10-09T07:44:26;55.60;;;25.23;;
58242;SDS011;50118;53.232;8.252;2023-10-09T07:47:02;66.45;;;28.90;;
58242;SDS011;50118;53.232;8.252;2023-10-09T07:49:47;59.35;;;26.15;;
58242;SDS011;50118;53.232;8.252;2023-10-09T07:52:18;56.85;;;26.23;;
58242;SDS011;50118;53.232;8.252;2023-10-09T07:54:47;62.53;;;26.42;;
58242;SDS011;50118;53.232;8.252;2023-10-09T07:57:18;56.57;;;26.13;;
58242;SDS011;50118;53.232;8.252;2023-10-09T07:59:50;56.92;;;26.50;;
58242;SDS011;50118;53.232;8.252;2023-10-09T08:02:37;57.78;;;25.35;;
58242;SDS011;50118;53.232;8.252;2023-10-09T08:05:25;49.40;;;24.55;;
58242;SDS011;50118;53.232;8.252;2023-10-09T08:07:58;57.08;;;25.05;;
58242;SDS011;50118;53.232;8.252;2023-10-09T08:10:29;64.10;;;27.48;;
58242;SDS011;50118;53.232;8.252;2023-10-09T08:12:58;56.63;;;25.20;;
58242;SDS011;50118;53.232;8.252;2023-10-09T08:15:45;60.33;;;25.25;;
58242;SDS011;50118;53.232;8.252;2023-10-09T08:18:21;52.92;;;24.92;;
58242;SDS011;50118;53.232;8.252;2023-10-09T08:20:53;57.30;;;25.02;;
58242;SDS011;50118;53.232;8.252;2023-10-09T08:23:25;54.22;;;24.90;;
58242;SDS011;50118;53.232;8.252;2023-10-09T08:26:13;52.45;;;23.95;;
58242;SDS011;50118;53.232;8.252;2023-10-09T08:28:40;51.80;;;24.30;;
58242;SDS011;50118;53.232;8.252;2023-10-09T08:31:14;52.58;;;23.83;;
58242;SDS011;50118;53.232;8.252;2023-10-09T08:33:45;45.35;;;22.52;;
58242;SDS011;50118;53.232;8.252;2023-10-09T08:36:22;55.75;;;24.63;;
58242;SDS011;50118;53.232;8.252;2023-10-09T08:38:55;46.03;;;22.73;;
58242;SDS011;50118;53.232;8.252;2023-10-09T08:46:58;43.47;;;21.10;;
58242;SDS011;50118;53.232;8.252;2023-10-09T08:49:25;46.17;;;21.25;;
58242;SDS011;50118;53.232;8.252;2023-10-09T08:52:00;47.22;;;21.05;;
58242;SDS011;50118;53.232;8.252;2023-10-09T08:54:28;46.25;;;21.05;;
58242;SDS011;50118;53.232;8.252;2023-10-09T08:56:58;46.97;;;21.58;;
58242;SDS011;50118;53.232;8.252;2023-10-09T08:59:24;45.95;;;21.50;;
58242;SDS011;50118;53.232;8.252;2023-10-09T09:01:57;46.22;;;21.05;;
58242;SDS011;50118;53.232;8.252;2023-10-09T09:07:29;36.75;;;19.25;;
58242;SDS011;50118;53.232;8.252;2023-10-09T09:09:59;41.55;;;18.20;;
58242;SDS011;50118;53.232;8.252;2023-10-09T09:12:49;37.83;;;17.38;;
58242;SDS011;50118;53.232;8.252;2023-10-09T09:15:29;31.55;;;17.30;;
58242;SDS011;50118;53.232;8.252;2023-10-09T09:18:11;36.70;;;19.05;;
58242;SDS011;50118;53.232;8.252;2023-10-09T09:20:56;30.85;;;16.27;;
58242;SDS011;50118;53.232;8.252;2023-10-09T09:23:23;32.58;;;16.42;;
58242;SDS011;50118;53.232;8.252;2023-10-09T09:25:49;35.58;;;17.45;;
58242;SDS011;50118;53.232;8.252;2023-10-09T09:28:37;34.88;;;16.67;;
58242;SDS011;50118;53.232;8.252;2023-10-09T09:31:20;31.50;;;15.52;;
58242;SDS011;50118;53.232;8.252;2023-10-09T09:33:58;32.03;;;16.10;;
58242;SDS011;50118;53.232;8.252;2023-10-09T09:36:24;34.75;;;17.17;;
58242;SDS011;50118;53.232;8.252;2023-10-09T09:38:51;34.67;;;16.40;;
58242;SDS011;50118;53.232;8.252;2023-10-09T09:41:41;34.38;;;16.38;;
58242;SDS011;50118;53.232;8.252;2023-10-09T09:44:10;27.33;;;15.55;;
58242;SDS011;50118;53.232;8.252;2023-10-09T09:46:39;36.95;;;16.67;;
58242;SDS011;50118;53.232;8.252;2023-10-09T09:49:07;29.45;;;16.13;;
58242;SDS011;50118;53.232;8.252;2023-10-09T09:51:57;30.65;;;14.82;;
58242;SDS011;50118;53.232;8.252;2023-10-09T09:54:35;31.70;;;16.00;;
58242;SDS011;50118;53.232;8.252;2023-10-09T09:57:05;26.88;;;14.32;;
58242;SDS011;50118;53.232;8.252;2023-10-09T09:59:39;30.98;;;15.35;;
58242;SDS011;50118;53.232;8.252;2023-10-09T10:02:06;28.58;;;15.18;;
58242;SDS011;50118;53.232;8.252;2023-10-09T10:04:38;29.48;;;15.38;;
58242;SDS011;50118;53.232;8.252;2023-10-09T10:07:06;31.30;;;15.68;;
58242;SDS011;50118;53.232;8.252;2023-10-09T10:09:37;29.50;;;15.10;;
58242;SDS011;50118;53.232;8.252;2023-10-09T10:15:06;24.90;;;13.90;;
58242;SDS011;50118;53.232;8.252;2023-10-09T10:20:25;25.17;;;13.63;;
58242;SDS011;50118;53.232;8.252;2023-10-09T10:25:45;25.35;;;12.80;;
58242;SDS011;50118;53.232;8.252;2023-10-09T10:28:25;24.30;;;12.68;;
58242;SDS011;50118;53.232;8.252;2023-10-09T10:31:04;25.30;;;13.63;;
58242;SDS011;50118;53.232;8.252;2023-10-09T10:36:24;22.42;;;11.85;;
58242;SDS011;50118;53.232;8.252;2023-10-09T10:39:10;26.83;;;11.98;;
58242;SDS011;50118;53.232;8.252;2023-10-09T10:41:36;18.88;;;10.75;;
58242;SDS011;50118;53.232;8.252;2023-10-09T10:44:16;25.02;;;11.65;;
58242;SDS011;50118;53.232;8.252;2023-10-09T10:47:05;21.08;;;11.45;;
58242;SDS011;50118;53.232;8.252;2023-10-09T10:49:47;18.92;;;10.10;;
58242;SDS011;50118;53.232;8.252;2023-10-09T10:52:23;19.90;;;10.25;;
58242;SDS011;50118;53.232;8.252;2023-10-09T10:55:07;25.58;;;10.93;;
58242;SDS011;50118;53.232;8.252;2023-10-09T10:57:43;19.20;;;9.82;;
58242;SDS011;50118;53.232;8.252;2023-10-09T11:00:18;21.77;;;10.95;;
58242;SDS011;50118;53.232;8.252;2023-10-09T11:03:03;19.95;;;10.93;;
58242;SDS011;50118;53.232;8.252;2023-10-09T11:05:44;19.38;;;10.05;;
58242;SDS011;50118;53.232;8.252;2023-10-09T11:08:26;22.15;;;12.73;;
58242;SDS011;50118;53.232;8.252;2023-10-09T11:11:10;16.88;;;9.80;;
58242;SDS011;50118;53.232;8.252;2023-10-09T11:13:44;18.70;;;9.68;;
58242;SDS011;50118;53.232;8.252;2023-10-09T11:16:23;16.40;;;6.75;;
58242;SDS011;50118;53.232;8.252;2023-10-09T11:19:19;15.18;;;8.80;;
58242;SDS011;50118;53.232;8.252;2023-10-09T11:21:52;15.55;;;7.15;;
58242;SDS011;50118;53.232;8.252;2023-10-09T11:24:43;10.43;;;6.13;;
58242;SDS011;50118;53.232;8.252;2023-10-09T11:27:12;11.65;;;6.82;;
58242;SDS011;50118;53.232;8.252;2023-10-09T11:29:49;14.38;;;7.63;;
58242;SDS011;50118;53.232;8.252;2023-10-09T11:32:16;17.73;;;10.27;;
58242;SDS011;50118;53.232;8.252;2023-10-09T11:34:47;14.30;;;8.25;;
58242;SDS011;50118;53.232;8.252;2023-10-09T11:37:20;11.77;;;5.70;;
58242;SDS011;50118;53.232;8.252;2023-10-09T11:39:53;11.45;;;5.47;;
58242;SDS011;50118;53.232;8.252;2023-10-09T11:42:19;11.38;;;5.30;;
58242;SDS011;50118;53.232;8.252;2023-10-09T11:45:00;10.65;;;4.38;;
58242;SDS011;50118;53.232;8.252;2023-10-09T11:47:38;10.43;;;4.90;;
58242;SDS011;50118;53.232;8.252;2023-10-09T11:50:19;13.05;;;6.88;;
58242;SDS011;50118;53.232;8.252;2023-10-09T11:52:58;11.02;;;5.03;;
58242;SDS011;50118;53.232;8.252;2023-10-09T11:55:43;9.85;;;4.85;;
58242;SDS011;50118;53.232;8.252;2023-10-09T11:58:14;16.48;;;6.53;;
58242;SDS011;50118;53.232;8.252;2023-10-09T12:00:49;9.65;;;4.35;;
58242;SDS011;50118;53.232;8.252;2023-10-09T12:03:22;7.22;;;3.63;;
58242;SDS011;50118;53.232;8.252;2023-10-09T12:05:58;13.15;;;6.55;;
58242;SDS011;50118;53.232;8.252;2023-10-09T12:08:30;10.25;;;4.82;;
58242;SDS011;50118;53.232;8.252;2023-10-09T12:10:57;11.57;;;4.90;;
58242;SDS011;50118;53.232;8.252;2023-10-09T12:13:23;11.77;;;4.45;;
58242;SDS011;50118;53.232;8.252;2023-10-09T12:15:50;10.30;;;3.90;;
58242;SDS011;50118;53.232;8.252;2023-10-09T12:18:17;11.02;;;3.70;;
58242;SDS011;50118;53.232;8.252;2023-10-09T12:20:43;10.40;;;3.78;;
58242;SDS011;50118;53.232;8.252;2023-10-09T12:23:16;9.50;;;3.50;;
58242;SDS011;50118;53.232;8.252;2023-10-09T12:25:42;10.23;;;3.88;;
58242;SDS011;50118;53.232;8.252;2023-10-09T12:28:10;8.45;;;3.80;;
58242;SDS011;50118;53.232;8.252;2023-10-09T12:30:37;14.57;;;4.10;;
58242;SDS011;50118;53.232;8.252;2023-10-09T12:33:06;8.95;;;3.42;;
58242;SDS011;50118;53.232;8.252;2023-10-09T12:35:36;9.43;;;3.38;;
58242;SDS011;50118;53.232;8.252;2023-10-09T12:38:03;10.18;;;3.80;;
58242;SDS011;50118;53.232;8.252;2023-10-09T12:40:35;9.60;;;3.22;;
58242;SDS011;50118;53.232;8.252;2023-10-09T12:43:01;9.65;;;3.60;;
58242;SDS011;50118;53.232;8.252;2023-10-09T12:45:27;10.55;;;3.78;;
58242;SDS011;50118;53.232;8.252;2023-10-09T12:47:57;12.07;;;3.97;;
58242;SDS011;50118;53.232;8.252;2023-10-09T12:50:34;9.48;;;3.53;;
58242;SDS011;50118;53.232;8.252;2023-10-09T12:55:38;12.93;;;3.60;;
58242;SDS011;50118;53.232;8.252;2023-10-09T12:58:05;10.88;;;3.60;;
58242;SDS011;50118;53.232;8.252;2023-10-09T13:00:35;11.25;;;3.67;;
58242;SDS011;50118;53.232;8.252;2023-10-09T13:03:10;7.72;;;3.53;;
58242;SDS011;50118;53.232;8.252;2023-10-09T13:05:45;9.60;;;3.40;;
58242;SDS011;50118;53.232;8.252;2023-10-09T13:08:20;9.55;;;3.20;;
58242;SDS011;50118;53.232;8.252;2023-10-09T13:10:47;8.40;;;3.20;;
58242;SDS011;50118;53.232;8.252;2023-10-09T13:13:23;9.90;;;3.05;;
58242;SDS011;50118;53.232;8.252;2023-10-09T13:15:48;9.77;;;3.13;;
58242;SDS011;50118;53.232;8.252;2023-10-09T13:18:14;11.75;;;3.25;;
58242;SDS011;50118;53.232;8.252;2023-10-09T13:20:42;9.30;;;3.47;;
58242;SDS011;50118;53.232;8.252;2023-10-09T13:23:10;8.68;;;3.40;;
58242;SDS011;50118;53.232;8.252;2023-10-09T13:25:40;13.63;;;3.85;;
58242;SDS011;50118;53.232;8.252;2023-10-09T13:28:05;11.55;;;3.75;;
58242;SDS011;50118;53.232;8.252;2023-10-09T13:30:31;11.68;;;3.80;;
58242;SDS011;50118;53.232;8.252;2023-10-09T13:33:04;12.55;;;3.72;;
58242;SDS011;50118;53.232;8.252;2023-10-09T13:35:30;7.85;;;3.28;;
58242;SDS011;50118;53.232;8.252;2023-10-09T13:38:03;10.90;;;3.75;;
58242;SDS011;50118;53.232;8.252;2023-10-09T13:40:40;10.18;;;3.58;;
58242;SDS011;50118;53.232;8.252;2023-10-09T13:43:05;9.93;;;3.15;;
58242;SDS011;50118;53.232;8.252;2023-10-09T13:45:31;9.13;;;3.20;;
58242;SDS011;50118;53.232;8.252;2023-10-09T13:47:58;10.50;;;3.60;;
58242;SDS011;50118;53.232;8.252;2023-10-09T13:50:24;9.50;;;3.10;;
58242;SDS011;50118;53.232;8.252;2023-10-09T13:52:54;8.32;;;3.53;;
58242;SDS011;50118;53.232;8.252;2023-10-09T13:55:21;9.38;;;3.53;;
58242;SDS011;50118;53.232;8.252;2023-10-09T13:57:48;7.80;;;3.00;;
58242;SDS011;50118;53.232;8.252;2023-10-09T14:00:14;9.23;;;3.35;;
58242;SDS011;50118;53.232;8.252;2023-10-09T14:02:57;10.88;;;4.13;;
58242;SDS011;50118;53.232;8.252;2023-10-09T14:05:37;10.32;;;3.22;;
58242;SDS011;50118;53.232;8.252;2023-10-09T14:08:09;10.55;;;3.63;;
58242;SDS011;50118;53.232;8.252;2023-10-09T14:10:37;7.30;;;2.80;;
58242;SDS011;50118;53.232;8.252;2023-10-09T14:13:04;9.60;;;3.42;;
58242;SDS011;50118;53.232;8.252;2023-10-09T14:15:37;12.02;;;3.80;;
58242;SDS011;50118;53.232;8.252;2023-10-09T14:18:06;9.68;;;3.60;;
58242;SDS011;50118;53.232;8.252;2023-10-09T14:20:34;10.43;;;3.45;;
58242;SDS011;50118;53.232;8.252;2023-10-09T14:23:00;8.77;;;3.20;;
58242;SDS011;50118;53.232;8.252;2023-10-09T14:28:07;11.05;;;2.95;;
58242;SDS011;50118;53.232;8.252;2023-10-09T14:30:36;10.38;;;2.95;;
58242;SDS011;50118;53.232;8.252;2023-10-09T14:33:08;6.50;;;2.40;;
58242;SDS011;50118;53.232;8.252;2023-10-09T14:35:40;7.80;;;2.78;;
58242;SDS011;50118;53.232;8.252;2023-10-09T14:38:10;9.57;;;2.85;;
58242;SDS011;50118;53.232;8.252;2023-10-09T14:40:49;5.65;;;2.70;;
58242;SDS011;50118;53.232;8.252;2023-10-09T14:43:14;9.05;;;2.63;;
58242;SDS011;50118;53.232;8.252;2023-10-09T14:45:52;7.32;;;2.40;;
58242;SDS011;50118;53.232;8.252;2023-10-09T14:48:19;7.28;;;2.38;;
58242;SDS011;50118;53.232;8.252;2023-10-09T14:50:51;7.65;;;2.45;;
58242;SDS011;50118;53.232;8.252;2023-10-09T14:53:23;7.80;;;2.75;;
58242;SDS011;50118;53.232;8.252;2023-10-09T14:55:57;6.15;;;2.20;;
58242;SDS011;50118;53.232;8.252;2023-10-09T14:58:26;7.05;;;2.78;;
58242;SDS011;50118;53.232;8.252;2023-10-09T15:00:54;8.05;;;2.70;;
58242;SDS011;50118;53.232;8.252;2023-10-09T15:03:20;7.47;;;3.03;;
58242;SDS011;50118;53.232;8.252;2023-10-09T15:05:47;8.20;;;2.67;;
58242;SDS011;50118;53.232;8.252;2023-10-09T15:08:12;7.60;;;2.78;;
58242;SDS011;50118;53.232;8.252;2023-10-09T15:10:45;10.65;;;2.47;;
58242;SDS011;50118;53.232;8.252;2023-10-09T15:13:20;9.07;;;2.65;;
58242;SDS011;50118;53.232;8.252;2023-10-09T15:15:45;6.85;;;2.65;;
58242;SDS011;50118;53.232;8.252;2023-10-09T15:18:16;7.03;;;2.30;;
58242;SDS011;50118;53.232;8.252;2023-10-09T15:20:50;7.25;;;2.45;;
58242;SDS011;50118;53.232;8.252;2023-10-09T15:23:16;8.82;;;3.10;;
58242;SDS011;50118;53.232;8.252;2023-10-09T15:25:45;6.25;;;2.10;;
58242;SDS011;50118;53.232;8.252;2023-10-09T15:28:14;7.10;;;2.30;;
58242;SDS011;50118;53.232;8.252;2023-10-09T15:30:41;7.05;;;2.58;;
58242;SDS011;50118;53.232;8.252;2023-10-09T15:33:07;7.32;;;2.17;;
58242;SDS011;50118;53.232;8.252;2023-10-09T15:35:36;6.00;;;2.28;;
58242;SDS011;50118;53.232;8.252;2023-10-09T15:38:03;6.05;;;2.40;;
58242;SDS011;50118;53.232;8.252;2023-10-09T15:40:32;9.10;;;2.40;;
58242;SDS011;50118;53.232;8.252;2023-10-09T15:43:02;6.90;;;2.13;;
58242;SDS011;50118;53.232;8.252;2023-10-09T15:45:30;5.45;;;2.13;;
58242;SDS011;50118;53.232;8.252;2023-10-09T15:47:56;8.10;;;1.90;;